createdAt,value
2023-02-03T00:02:17.425Z,2.97
2023-02-03T00:05:21.916Z,3.67
2023-02-03T00:08:24.969Z,4.00
2023-02-03T00:11:28.275Z,3.80
2023-02-03T00:14:31.157Z,3.70
2023-02-03T00:17:34.094Z,4.63
2023-02-03T00:20:38.319Z,3.77
2023-02-03T00:23:41.272Z,4.23
2023-02-03T00:26:44.569Z,3.87
2023-02-03T00:29:47.454Z,4.40
2023-02-03T00:32:50.359Z,4.60
2023-02-03T00:35:54.586Z,4.40
2023-02-03T00:38:57.523Z,5.07
2023-02-03T00:42:00.431Z,4.67
2023-02-03T00:45:03.457Z,5.00
2023-02-03T00:48:06.985Z,4.27
2023-02-03T00:51:11.305Z,4.33
2023-02-03T00:54:14.252Z,4.73
2023-02-03T00:57:17.165Z,5.10
2023-02-03T01:00:20.943Z,4.90
2023-02-03T01:03:24.026Z,5.13
2023-02-03T01:06:28.772Z,5.37
2023-02-03T01:09:35.291Z,5.77
2023-02-03T01:12:38.261Z,5.70
2023-02-03T01:15:47.669Z,5.83
2023-02-03T01:18:50.988Z,5.37
2023-02-03T01:21:55.227Z,6.47
2023-02-03T01:24:58.196Z,5.97
2023-02-03T01:28:01.136Z,6.57
2023-02-03T01:31:12.092Z,5.67
2023-02-03T01:34:16.312Z,5.63
2023-02-03T01:37:20.611Z,6.03
2023-02-03T01:40:23.617Z,5.90
2023-02-03T01:43:31.517Z,5.27
2023-02-03T01:46:38.368Z,5.33
2023-02-03T01:49:45.882Z,5.60
2023-02-03T01:52:53.824Z,5.73
2023-02-03T01:55:58.229Z,5.53
2023-02-03T01:59:01.827Z,5.67
2023-02-03T02:02:05.868Z,4.70
2023-02-03T02:05:14.736Z,5.20
2023-02-03T02:08:22.326Z,5.03
2023-02-03T02:11:25.239Z,4.90
2023-02-03T02:14:28.453Z,5.10
2023-02-03T02:17:45.381Z,4.13
2023-02-03T02:21:16.627Z,4.90
2023-02-03T02:24:51.502Z,4.63
2023-02-03T02:28:31.747Z,4.60
2023-02-03T02:31:52.379Z,4.43
2023-02-03T02:35:03.866Z,4.03
2023-02-03T02:38:14.702Z,4.80
2023-02-03T02:41:24.425Z,4.47
2023-02-03T02:44:34.347Z,4.13
2023-02-03T02:47:39.716Z,4.57
2023-02-03T02:50:47.422Z,4.57
2023-02-03T02:53:56.267Z,4.10
2023-02-03T02:57:02.706Z,4.23
2023-02-03T03:00:06.833Z,4.53
2023-02-03T03:03:19.471Z,4.23
2023-02-03T03:06:25.958Z,3.90
2023-02-03T03:09:35.979Z,3.77
2023-02-03T03:12:42.547Z,3.67
2023-02-03T03:15:47.057Z,3.97
2023-02-03T03:18:57.146Z,3.40
2023-02-03T03:22:03.054Z,3.30
2023-02-03T03:25:12.153Z,3.30
2023-02-03T03:28:20.193Z,2.90
2023-02-03T03:31:23.255Z,3.47
2023-02-03T03:34:27.871Z,2.70
2023-02-03T03:37:36.839Z,2.30
2023-02-03T03:40:42.407Z,2.30
2023-02-03T03:43:48.122Z,2.40
2023-02-03T03:46:59.401Z,2.30
2023-02-03T03:50:06.932Z,2.40
2023-02-03T03:53:11.480Z,2.17
2023-02-03T03:56:20.347Z,2.07
2023-02-03T03:59:25.269Z,2.37
2023-02-03T04:02:29.132Z,1.80
2023-02-03T04:05:34.550Z,2.67
2023-02-03T04:08:39.285Z,2.40
2023-02-03T04:11:59.949Z,2.73
2023-02-03T04:15:02.882Z,2.63
2023-02-03T04:18:06.592Z,3.20
2023-02-03T04:21:10.843Z,2.37
2023-02-03T04:24:13.922Z,2.73
2023-02-03T04:27:16.811Z,2.70
2023-02-03T04:30:19.819Z,2.60
2023-02-03T04:33:22.705Z,2.80
2023-02-03T04:36:27.206Z,3.10
2023-02-03T04:39:30.121Z,2.83
2023-02-03T04:42:33.217Z,2.37
2023-02-03T04:45:36.133Z,2.90
2023-02-03T04:48:39.213Z,2.70
2023-02-03T04:51:44.202Z,3.23
2023-02-03T04:54:47.112Z,3.40
2023-02-03T04:57:49.999Z,3.50
2023-02-03T05:00:53.080Z,4.20
2023-02-03T05:03:56.000Z,3.67
2023-02-03T05:07:00.302Z,3.70
2023-02-03T05:10:03.214Z,3.70
2023-02-03T05:13:06.169Z,3.80
2023-02-03T05:16:09.153Z,4.27
2023-02-03T05:19:12.089Z,4.43
2023-02-03T05:22:16.322Z,4.40
2023-02-03T05:25:19.237Z,4.10
2023-02-03T05:28:22.161Z,3.37
2023-02-03T05:31:25.319Z,3.50
2023-02-03T05:34:28.267Z,3.87
2023-02-03T05:37:32.501Z,3.37
2023-02-03T05:40:52.835Z,3.60
2023-02-03T05:43:55.757Z,3.33
2023-02-03T05:47:00.277Z,3.40
2023-02-03T05:50:03.224Z,3.33
2023-02-03T05:53:08.381Z,3.80
2023-02-03T05:56:11.300Z,3.40
2023-02-03T05:59:14.204Z,3.17
2023-02-03T06:02:17.122Z,3.00
2023-02-03T06:05:20.149Z,3.30
2023-02-03T06:08:28.385Z,2.73
2023-02-03T06:11:31.931Z,2.63
2023-02-03T06:14:34.845Z,2.33
2023-02-03T06:17:37.923Z,2.20
2023-02-03T06:20:40.885Z,2.23
2023-02-03T06:23:45.115Z,1.97
2023-02-03T06:26:48.055Z,2.10
2023-02-03T06:29:51.279Z,2.77
2023-02-03T06:32:54.233Z,2.50
2023-02-03T06:35:57.153Z,2.20
2023-02-03T06:39:01.393Z,2.30
2023-02-03T06:42:04.653Z,2.60
2023-02-03T06:45:08.408Z,2.40
2023-02-03T06:48:11.361Z,2.70
2023-02-03T06:51:14.261Z,2.47
2023-02-03T06:54:18.826Z,2.53
2023-02-03T06:57:21.733Z,2.90
2023-02-03T07:00:24.988Z,2.87
2023-02-03T07:03:27.896Z,2.50
2023-02-03T07:06:33.765Z,2.60
2023-02-03T07:09:38.107Z,2.73
2023-02-03T07:12:41.097Z,2.37
2023-02-03T07:15:44.044Z,2.70
2023-02-03T07:18:48.182Z,2.30
2023-02-03T07:21:51.393Z,2.00
2023-02-03T07:24:55.683Z,2.40
2023-02-03T07:27:58.689Z,2.60
2023-02-03T07:31:01.982Z,2.07
2023-02-03T07:34:06.310Z,2.37
2023-02-03T07:37:09.258Z,1.93
2023-02-03T07:40:14.923Z,2.40
2023-02-03T07:43:18.468Z,1.80
2023-02-03T07:46:21.443Z,1.83
2023-02-03T07:49:24.446Z,2.30
2023-02-03T07:52:27.379Z,2.20
2023-02-03T07:55:31.705Z,2.00
2023-02-03T07:58:34.686Z,2.43
2023-02-03T08:01:37.822Z,1.97
2023-02-03T08:04:40.873Z,2.20
2023-02-03T08:07:44.063Z,2.17
2023-02-03T08:10:48.399Z,2.00
2023-02-03T08:13:51.600Z,2.73
2023-02-03T08:16:54.510Z,2.50
2023-02-03T08:19:57.435Z,1.47
2023-02-03T08:23:00.462Z,2.07
2023-02-03T08:26:04.984Z,1.80
2023-02-03T08:29:07.980Z,2.30
2023-02-03T08:32:11.711Z,2.13
2023-02-03T08:35:15.867Z,2.47
2023-02-03T08:38:19.150Z,2.27
2023-02-03T08:41:23.385Z,2.57
2023-02-03T08:44:26.359Z,3.40
2023-02-03T08:47:29.347Z,3.27
2023-02-03T08:50:32.360Z,3.50
2023-02-03T08:53:35.316Z,3.00
2023-02-03T08:56:40.508Z,2.63
2023-02-03T08:59:44.589Z,2.87
2023-02-03T09:02:47.629Z,3.57
2023-02-03T09:05:50.599Z,3.23
2023-02-03T09:08:53.517Z,3.47
2023-02-03T09:12:02.108Z,3.63
2023-02-03T09:15:05.640Z,3.47
2023-02-03T09:18:08.573Z,3.77
2023-02-03T09:21:16.037Z,3.47
2023-02-03T09:24:30.669Z,4.27
2023-02-03T09:27:35.022Z,4.40
2023-02-03T09:30:38.022Z,4.07
2023-02-03T09:33:41.695Z,3.93
2023-02-03T09:36:44.604Z,4.23
2023-02-03T09:39:48.729Z,4.80
2023-02-03T09:43:03.322Z,4.80
2023-02-03T09:46:13.479Z,5.30
2023-02-03T09:49:19.769Z,5.37
2023-02-03T09:52:24.705Z,4.53
2023-02-03T09:55:34.949Z,4.80
2023-02-03T09:58:39.199Z,5.30
2023-02-03T10:01:51.703Z,5.10
2023-02-03T10:05:01.093Z,6.07
2023-02-03T10:08:11.712Z,5.40
2023-02-03T10:11:23.159Z,5.40
2023-02-03T10:14:40.906Z,5.23
2023-02-03T10:17:48.614Z,6.47
2023-02-03T10:20:54.871Z,4.70
2023-02-03T10:23:58.841Z,5.50
2023-02-03T10:27:01.980Z,5.23
2023-02-03T10:30:20.022Z,6.00
2023-02-03T10:33:23.382Z,5.17
2023-02-03T10:36:39.065Z,5.87
2023-02-03T10:39:46.234Z,4.97
2023-02-03T10:43:07.984Z,5.63
2023-02-03T10:46:12.246Z,5.00
2023-02-03T10:49:16.410Z,5.10
2023-02-03T10:52:28.639Z,5.20
2023-02-03T10:55:32.716Z,5.70
2023-02-03T10:58:35.974Z,5.50
2023-02-03T11:01:46.179Z,6.20
2023-02-03T11:04:49.220Z,6.03
2023-02-03T11:07:53.081Z,5.50
2023-02-03T11:11:03.819Z,5.47
2023-02-03T11:14:16.709Z,4.47
2023-02-03T11:17:23.252Z,6.63
2023-02-03T11:20:28.915Z,4.93
2023-02-03T11:23:32.057Z,6.73
2023-02-03T11:26:38.019Z,5.20
2023-02-03T11:29:44.526Z,5.40
2023-02-03T11:32:50.087Z,4.70
2023-02-03T11:35:59.003Z,4.83
2023-02-03T11:39:26.266Z,4.43
2023-02-03T11:42:29.208Z,3.67
2023-02-03T11:45:38.448Z,5.47
2023-02-03T11:48:52.547Z,4.70
2023-02-03T11:52:05.230Z,3.87
2023-02-03T11:55:20.742Z,3.67
2023-02-03T11:58:53.337Z,4.43
2023-02-03T12:02:24.177Z,4.33
2023-02-03T12:05:52.128Z,5.03
2023-02-03T12:09:17.851Z,4.67
2023-02-03T12:12:41.541Z,4.67
2023-02-03T12:16:05.398Z,4.00
2023-02-03T12:19:15.396Z,5.30
2023-02-03T12:22:27.691Z,4.80
2023-02-03T12:25:41.806Z,5.37
2023-02-03T12:29:02.167Z,3.50
2023-02-03T12:32:13.183Z,3.30
2023-02-03T12:35:21.177Z,5.23
2023-02-03T12:38:35.214Z,4.20
2023-02-03T12:41:41.684Z,4.17
2023-02-03T12:44:51.758Z,4.10
2023-02-03T12:47:59.143Z,5.60
2023-02-03T12:51:07.313Z,4.73
2023-02-03T12:54:21.291Z,5.00
2023-02-03T12:57:28.382Z,5.13
2023-02-03T13:00:46.364Z,4.17
2023-02-03T13:03:55.390Z,3.93
2023-02-03T13:07:05.389Z,3.87
2023-02-03T13:10:17.180Z,4.70
2023-02-03T13:13:28.784Z,4.03
2023-02-03T13:16:36.668Z,4.33
2023-02-03T13:19:44.550Z,3.20
2023-02-03T13:22:47.571Z,3.67
2023-02-03T13:26:08.735Z,4.70
2023-02-03T13:29:27.263Z,3.73
2023-02-03T13:32:55.316Z,4.20
2023-02-03T13:36:09.709Z,3.57
2023-02-03T13:39:32.727Z,4.53
2023-02-03T13:42:41.723Z,3.80
2023-02-03T13:45:49.366Z,4.07
2023-02-03T13:48:53.291Z,4.33
2023-02-03T13:51:56.541Z,4.60
2023-02-03T13:55:00.130Z,4.23
2023-02-03T13:58:05.797Z,4.23
2023-02-03T14:01:38.410Z,4.00
2023-02-03T14:04:57.108Z,3.77
2023-02-03T14:08:20.082Z,3.57
2023-02-03T14:11:43.072Z,4.00
2023-02-03T14:15:04.038Z,3.63
2023-02-03T14:18:35.567Z,3.93
2023-02-03T14:21:42.950Z,4.00
2023-02-03T14:24:49.412Z,4.67
2023-02-03T14:28:01.459Z,4.30
2023-02-03T14:31:14.999Z,3.40
2023-02-03T14:34:18.360Z,5.13
2023-02-03T14:37:24.336Z,4.60
2023-02-03T14:40:40.998Z,4.17
2023-02-03T14:43:51.090Z,5.30
2023-02-03T14:47:05.808Z,3.70
2023-02-03T14:50:21.325Z,3.80
2023-02-03T14:53:48.572Z,4.03
2023-02-03T14:57:19.420Z,4.20
2023-02-03T15:00:31.814Z,4.13
2023-02-03T15:03:37.823Z,3.47
2023-02-03T15:06:43.104Z,4.20
2023-02-03T15:09:48.172Z,4.30
2023-02-03T15:12:52.719Z,3.87
2023-02-03T15:15:57.884Z,4.57
2023-02-03T15:19:08.865Z,4.30
2023-02-03T15:22:23.010Z,4.30
2023-02-03T15:25:29.057Z,3.73
2023-02-03T15:28:32.159Z,4.27
2023-02-03T15:31:38.082Z,3.93
2023-02-03T15:34:46.156Z,5.03
2023-02-03T15:37:52.652Z,3.87
2023-02-03T15:40:58.755Z,4.67
2023-02-03T15:44:04.833Z,4.37
2023-02-03T15:47:22.706Z,4.43
2023-02-03T15:50:34.277Z,5.67
2023-02-03T15:53:47.970Z,4.27
2023-02-03T15:56:57.421Z,5.07
2023-02-03T16:00:11.648Z,4.97
2023-02-03T16:03:21.418Z,4.87
2023-02-03T16:06:30.511Z,4.47
2023-02-03T16:09:35.439Z,4.13
2023-02-03T16:12:38.805Z,4.23
2023-02-03T16:15:41.982Z,4.90
2023-02-03T16:18:52.257Z,4.20
2023-02-03T16:21:57.855Z,5.50
2023-02-03T16:25:14.373Z,5.13
2023-02-03T16:28:36.601Z,4.23
2023-02-03T16:32:02.628Z,4.30
2023-02-03T16:35:29.183Z,4.03
2023-02-03T16:38:51.359Z,3.77
2023-02-03T16:42:17.126Z,5.20
2023-02-03T16:45:37.540Z,5.17
2023-02-03T16:48:58.313Z,5.10
2023-02-03T16:52:01.570Z,4.20
2023-02-03T16:55:06.915Z,6.63
2023-02-03T16:58:11.911Z,4.10
2023-02-03T17:01:14.941Z,5.83
2023-02-03T17:04:18.013Z,3.77
2023-02-03T17:07:20.947Z,4.33
2023-02-03T17:10:25.242Z,4.40
2023-02-03T17:13:28.151Z,4.60
2023-02-03T17:16:33.288Z,4.93
2023-02-03T17:19:36.228Z,4.77
2023-02-03T17:22:39.185Z,4.50
2023-02-03T17:25:45.807Z,4.43
2023-02-03T17:28:48.756Z,5.40
2023-02-03T17:31:51.756Z,5.43
2023-02-03T17:34:54.694Z,4.90
2023-02-03T17:37:57.737Z,5.90
2023-02-03T17:54:33.602Z,5.90
2023-02-03T17:57:39.296Z,4.03
2023-02-03T18:00:42.215Z,5.40
2023-02-03T18:03:47.997Z,3.63
2023-02-03T18:06:50.986Z,4.90
2023-02-03T18:09:53.869Z,4.23
2023-02-03T18:12:58.140Z,4.87
2023-02-03T18:16:01.349Z,4.43
2023-02-03T18:19:06.239Z,4.67
2023-02-03T18:22:09.191Z,4.27
2023-02-03T18:25:12.640Z,4.77
2023-02-03T18:28:16.910Z,4.53
2023-02-03T18:31:21.248Z,5.90
2023-02-03T18:34:25.060Z,3.47
2023-02-03T18:37:28.394Z,5.00
2023-02-03T18:40:31.920Z,4.53
2023-02-03T18:43:36.690Z,4.13
2023-02-03T18:46:39.768Z,5.10
2023-02-03T18:49:42.707Z,4.33
2023-02-03T18:52:45.814Z,3.70
2023-02-03T18:55:48.763Z,3.63
2023-02-03T18:58:53.664Z,4.33
2023-02-03T19:01:56.576Z,4.33
2023-02-03T19:04:59.480Z,5.07
2023-02-03T19:08:02.447Z,5.20
2023-02-03T19:11:05.591Z,5.23
2023-02-03T19:14:09.869Z,4.40
2023-02-03T19:17:13.483Z,5.23
2023-02-03T19:20:17.360Z,4.83
2023-02-03T19:23:20.294Z,4.50
2023-02-03T19:26:23.185Z,4.20
2023-02-03T19:29:27.541Z,5.57
2023-02-03T19:32:31.488Z,4.57
2023-02-03T19:35:34.484Z,3.43
2023-02-03T19:38:37.802Z,3.27
2023-02-03T19:41:41.027Z,2.20
2023-02-03T19:44:45.296Z,2.20
2023-02-03T19:47:48.228Z,3.13
2023-02-03T19:50:51.273Z,3.00
2023-02-03T19:53:54.259Z,2.43
2023-02-03T19:56:57.195Z,2.13
2023-02-03T20:00:01.463Z,1.73
2023-02-03T20:03:05.596Z,1.97
2023-02-03T20:06:08.626Z,1.80
2023-02-03T20:09:12.073Z,1.47
2023-02-03T20:12:15.088Z,1.73
2023-02-03T20:15:19.596Z,1.33
2023-02-03T20:18:22.519Z,1.30
2023-02-03T20:21:25.529Z,1.33
2023-02-03T20:24:28.543Z,1.37
2023-02-03T20:27:31.427Z,1.10
2023-02-03T20:30:35.803Z,0.97
2023-02-03T20:33:38.759Z,0.87
2023-02-03T20:36:41.692Z,1.20
2023-02-03T20:39:44.608Z,0.80
2023-02-03T20:42:47.548Z,1.00
2023-02-03T20:45:52.707Z,0.97
2023-02-03T20:48:55.970Z,1.00
2023-02-03T20:51:58.902Z,1.10
2023-02-03T20:55:01.878Z,1.03
2023-02-03T20:58:13.529Z,1.30
2023-02-03T21:01:20.269Z,1.30
2023-02-03T21:04:41.182Z,1.63
2023-02-03T21:07:44.117Z,1.00
2023-02-03T21:10:48.705Z,0.90
2023-02-03T21:13:51.607Z,1.30
2023-02-03T21:16:55.953Z,1.00
2023-02-03T21:19:58.898Z,1.30
2023-02-03T21:23:01.932Z,0.90
2023-02-03T21:26:16.107Z,1.13
2023-02-03T21:29:24.106Z,0.53
2023-02-03T21:32:37.811Z,0.53
2023-02-03T21:35:40.733Z,0.80
2023-02-03T21:38:43.814Z,0.57
2023-02-03T21:41:46.716Z,0.70
2023-02-03T21:44:49.608Z,0.53
2023-02-03T21:47:54.268Z,0.57
2023-02-03T21:51:00.486Z,0.40
2023-02-03T21:54:05.010Z,0.60
2023-02-03T21:57:13.688Z,0.80
2023-02-03T22:00:38.886Z,0.80
2023-02-03T22:03:46.289Z,0.70
2023-02-03T22:06:50.662Z,0.70
2023-02-03T22:09:53.556Z,0.80
2023-02-03T22:12:56.457Z,0.50
2023-02-03T22:15:59.915Z,0.80
2023-02-03T22:19:04.178Z,0.80
2023-02-03T22:22:07.100Z,0.80
2023-02-03T22:25:10.138Z,0.80
2023-02-03T22:28:13.186Z,1.23
2023-02-03T22:31:16.551Z,1.00
2023-02-03T22:34:21.845Z,0.70
2023-02-03T22:37:24.760Z,0.93
2023-02-03T22:40:27.976Z,0.90
2023-02-03T22:43:32.128Z,0.90
2023-02-03T22:46:35.113Z,0.63
2023-02-03T22:49:39.358Z,0.70
2023-02-03T22:52:42.341Z,0.90
2023-02-03T22:55:45.280Z,0.93
2023-02-03T22:58:48.190Z,0.83
2023-02-03T23:01:51.147Z,1.07
2023-02-03T23:04:55.474Z,0.80
2023-02-03T23:07:58.482Z,0.90
2023-02-03T23:11:01.410Z,0.63
2023-02-03T23:14:04.298Z,0.60
2023-02-03T23:17:07.274Z,0.60
2023-02-03T23:20:14.182Z,0.70
2023-02-03T23:23:17.107Z,0.60
2023-02-03T23:26:20.012Z,0.90
2023-02-03T23:29:22.927Z,0.83
2023-02-03T23:32:25.904Z,0.83
2023-02-03T23:35:49.979Z,0.80
2023-02-03T23:38:52.927Z,0.83
2023-02-03T23:41:55.839Z,0.93
2023-02-03T23:44:59.188Z,1.00
2023-02-03T23:48:02.119Z,0.57
2023-02-03T23:51:06.544Z,0.70
2023-02-03T23:54:09.529Z,0.77
2023-02-03T23:57:12.477Z,0.50
